TimeEDT,TemperatureF,Dew PointF,Humidity,Sea Level PressureIn,VisibilityMPH,Wind Direction,Wind SpeedMPH,Gust SpeedMPH,PrecipitationIn,Events,Conditions,WindDirDegrees,DateUTC
12:54 AM,39.0,33.1,79,30.31,10.0,Calm,Calm,-,0.01,Rain,Light Rain,0,2013-10-30 04:54:00
1:54 AM,39.0,35.1,86,30.30,10.0,Calm,Calm,-,0.02,Rain,Light Rain,0,2013-10-30 05:54:00
2:54 AM,39.0,35.1,86,30.28,10.0,Calm,Calm,-,0.01,Rain,Light Rain,0,2013-10-30 06:54:00
3:54 AM,39.0,37.0,93,30.28,10.0,Calm,Calm,-,0.00,Rain,Light Rain,0,2013-10-30 07:54:00
4:54 AM,39.9,37.0,89,30.27,10.0,Calm,Calm,-,0.00,,Overcast,0,2013-10-30 08:54:00
5:54 AM,39.9,37.9,93,30.27,10.0,Calm,Calm,-,N/A,,Overcast,0,2013-10-30 09:54:00
6:54 AM,39.9,37.9,93,30.27,10.0,ESE,3.5,-,N/A,,Overcast,110,2013-10-30 10:54:00
7:54 AM,39.9,37.0,89,30.27,10.0,ESE,3.5,-,N/A,,Overcast,110,2013-10-30 11:54:00
8:54 AM,42.1,37.0,82,30.29,10.0,ENE,4.6,-,N/A,,Overcast,70,2013-10-30 12:54:00
9:54 AM,44.1,37.0,76,30.28,10.0,ESE,4.6,-,N/A,,Mostly Cloudy,120,2013-10-30 13:54:00
10:54 AM,46.0,37.0,71,30.28,10.0,SE,3.5,-,N/A,,Overcast,140,2013-10-30 14:54:00
11:54 AM,48.0,37.9,68,30.27,10.0,SE,3.5,-,N/A,,Overcast,140,2013-10-30 15:54:00
12:54 PM,51.1,37.9,61,30.24,10.0,ESE,4.6,-,N/A,,Mostly Cloudy,110,2013-10-30 16:54:00
1:54 PM,54.0,37.9,55,30.21,10.0,NE,3.5,-,N/A,,Partly Cloudy,40,2013-10-30 17:54:00
2:54 PM,55.9,37.9,51,30.20,10.0,Calm,Calm,-,N/A,,Partly Cloudy,0,2013-10-30 18:54:00
3:54 PM,57.9,37.9,47,30.18,10.0,Calm,Calm,-,N/A,,Partly Cloudy,0,2013-10-30 19:54:00
4:54 PM,55.9,39.0,53,30.17,10.0,ENE,5.8,-,N/A,,Partly Cloudy,60,2013-10-30 20:54:00
5:54 PM,50.0,41.0,71,30.18,10.0,NE,8.1,-,N/A,,Scattered Clouds,40,2013-10-30 21:54:00
6:54 PM,46.9,39.9,77,30.20,10.0,ENE,4.6,-,N/A,,Scattered Clouds,70,2013-10-30 22:54:00
7:54 PM,46.9,39.9,77,30.19,10.0,East,5.8,-,N/A,,Scattered Clouds,90,2013-10-30 23:54:00
8:54 PM,46.0,39.9,79,30.18,10.0,East,5.8,-,N/A,,Scattered Clouds,90,2013-10-31 00:54:00
9:54 PM,45.0,39.9,82,30.17,10.0,ESE,4.6,-,N/A,,Clear,120,2013-10-31 01:54:00
10:54 PM,45.0,37.9,76,30.17,10.0,SE,5.8,-,N/A,,Clear,130,2013-10-31 02:54:00
11:54 PM,45.0,37.9,76,30.13,10.0,SE,4.6,-,N/A,,Clear,130,2013-10-31 03:54:00